createdAt,value
2022-12-15T00:01:09.580Z,77.71
2022-12-15T00:05:39.811Z,77.76
2022-12-15T00:10:10.052Z,77.64
2022-12-15T00:14:40.197Z,77.97
2022-12-15T00:19:10.368Z,77.78
2022-12-15T00:23:40.435Z,77.95
2022-12-15T00:28:10.528Z,77.89
2022-12-15T00:32:41.244Z,78.13
2022-12-15T00:37:11.336Z,77.83
2022-12-15T00:41:24.086Z,77.76
2022-12-15T00:45:54.404Z,77.96
2022-12-15T00:50:24.478Z,78.06
2022-12-15T00:54:54.530Z,78.25
2022-12-15T00:59:24.661Z,78.38
2022-12-15T01:03:54.797Z,78.25
2022-12-15T01:08:24.958Z,78.32
2022-12-15T01:12:55.242Z,78.07
2022-12-15T01:17:25.415Z,78.31
2022-12-15T01:21:36.901Z,78.04
2022-12-15T01:25:51.152Z,78.16
2022-12-15T01:30:03.681Z,78.30
2022-12-15T01:34:15.226Z,78.37
2022-12-15T01:38:28.494Z,78.23
2022-12-15T01:42:40.197Z,78.18
2022-12-15T01:46:55.202Z,78.46
2022-12-15T01:51:13.351Z,78.35
2022-12-15T01:55:28.360Z,78.30
2022-12-15T01:59:46.218Z,78.58
2022-12-15T02:03:57.840Z,78.45
2022-12-15T02:08:10.109Z,78.41
2022-12-15T02:12:46.699Z,78.59
2022-12-15T02:17:06.288Z,78.47
2022-12-15T02:21:30.624Z,78.50
2022-12-15T02:25:57.272Z,78.56
2022-12-15T02:30:15.285Z,78.44
2022-12-15T02:35:08.702Z,78.67
2022-12-15T02:39:20.313Z,78.57
2022-12-15T02:43:37.086Z,78.55
2022-12-15T02:48:09.895Z,78.63
2022-12-15T02:52:58.996Z,78.67
2022-12-15T02:57:28.859Z,78.81
2022-12-15T03:01:52.033Z,78.71
2022-12-15T03:06:04.365Z,78.78
2022-12-15T03:10:16.304Z,78.85
2022-12-15T03:14:28.185Z,78.60
2022-12-15T03:18:39.983Z,78.87
2022-12-15T03:22:51.587Z,78.83
2022-12-15T03:27:04.547Z,78.92
2022-12-15T03:31:16.210Z,78.90
2022-12-15T03:35:27.877Z,78.56
2022-12-15T03:39:39.446Z,78.81
2022-12-15T03:43:50.989Z,78.69
2022-12-15T03:48:02.630Z,78.96
2022-12-15T03:52:14.171Z,78.87
2022-12-15T03:56:25.880Z,79.02
2022-12-15T04:00:37.739Z,79.00
2022-12-15T04:04:49.356Z,79.06
2022-12-15T04:09:01.097Z,78.96
2022-12-15T04:13:12.844Z,78.89
2022-12-15T04:17:24.493Z,78.95
2022-12-15T04:21:36.173Z,79.11
2022-12-15T04:26:06.484Z,78.86
2022-12-15T04:30:36.673Z,79.05
2022-12-15T04:35:06.991Z,79.08
2022-12-15T04:39:37.654Z,79.26
2022-12-15T04:44:07.821Z,79.06
2022-12-15T04:48:38.011Z,79.11
2022-12-15T04:53:08.091Z,78.97
2022-12-15T04:57:38.200Z,79.39
2022-12-15T05:02:08.424Z,79.21
2022-12-15T05:06:38.460Z,79.18
2022-12-15T05:11:08.644Z,79.18
2022-12-15T05:15:38.921Z,79.37
2022-12-15T05:20:09.238Z,79.28
2022-12-15T05:24:39.334Z,79.37
2022-12-15T05:29:09.608Z,79.29
2022-12-15T05:33:21.299Z,79.49
2022-12-15T05:37:32.906Z,79.15
2022-12-15T05:41:45.082Z,79.29
2022-12-15T05:45:56.744Z,79.41
2022-12-15T05:50:08.907Z,79.52
2022-12-15T05:54:20.632Z,79.37
2022-12-15T05:58:32.224Z,79.58
2022-12-15T06:02:43.806Z,79.31
2022-12-15T06:06:55.397Z,79.47
2022-12-15T06:11:07.455Z,79.25
2022-12-15T06:15:19.073Z,79.51
2022-12-15T06:19:30.904Z,79.56
2022-12-15T06:23:42.635Z,79.46
2022-12-15T06:27:58.446Z,79.44
2022-12-15T06:32:13.275Z,79.50
2022-12-15T06:36:25.130Z,79.61
2022-12-15T06:40:38.288Z,79.63
2022-12-15T06:44:50.094Z,79.77
2022-12-15T06:49:02.216Z,79.57
2022-12-15T06:53:15.395Z,79.47
2022-12-15T06:57:27.003Z,79.84
2022-12-15T07:01:38.891Z,79.83
2022-12-15T07:06:02.374Z,79.77
2022-12-15T07:10:14.102Z,79.92
2022-12-15T07:14:26.714Z,79.84
2022-12-15T07:18:38.906Z,79.78
2022-12-15T07:22:51.781Z,80.13
2022-12-15T07:27:03.393Z,79.86
2022-12-15T07:31:15.708Z,79.75
2022-12-15T07:35:27.439Z,80.08
2022-12-15T07:39:38.984Z,80.14
2022-12-15T07:43:50.452Z,79.89
2022-12-15T07:48:02.024Z,80.11
2022-12-15T07:52:14.091Z,80.22
2022-12-15T07:56:25.651Z,80.38
2022-12-15T08:00:37.230Z,80.23
2022-12-15T08:04:49.170Z,80.50
2022-12-15T08:09:00.633Z,80.54
2022-12-15T08:13:31.376Z,80.34
2022-12-15T08:17:46.473Z,80.46
2022-12-15T08:21:58.447Z,80.88
2022-12-15T08:26:12.483Z,80.79
2022-12-15T08:30:24.496Z,80.42
2022-12-15T08:34:36.105Z,80.79
2022-12-15T08:38:47.754Z,80.54
2022-12-15T08:42:59.216Z,80.96
2022-12-15T08:47:10.730Z,80.70
2022-12-15T08:51:25.767Z,80.90
2022-12-15T08:55:37.303Z,81.09
2022-12-15T08:59:49.004Z,81.15
2022-12-15T09:04:01.323Z,81.34
2022-12-15T09:08:13.012Z,81.30
2022-12-15T09:12:28.247Z,81.19
2022-12-15T09:16:39.813Z,81.62
2022-12-15T09:20:51.497Z,81.39
2022-12-15T09:25:04.476Z,81.58
2022-12-15T09:29:16.296Z,81.44
2022-12-15T09:33:28.022Z,81.35
2022-12-15T09:37:39.964Z,81.45
2022-12-15T09:42:00.746Z,81.18
2022-12-15T09:46:50.707Z,81.27
2022-12-15T09:51:05.453Z,81.34
2022-12-15T09:55:37.337Z,81.43
2022-12-15T10:00:26.074Z,81.62
2022-12-15T10:04:43.590Z,80.96
2022-12-15T10:09:10.108Z,80.96
2022-12-15T10:13:47.390Z,80.23
2022-12-15T10:18:46.394Z,80.04
2022-12-15T10:23:14.044Z,79.67
2022-12-15T10:27:50.393Z,78.79
2022-12-15T10:32:16.312Z,78.97
2022-12-15T10:36:27.884Z,78.11
2022-12-15T10:40:55.570Z,78.43
2022-12-15T10:45:33.072Z,78.70
2022-12-15T10:49:44.850Z,78.50
2022-12-15T10:54:13.196Z,78.86
2022-12-15T10:58:24.920Z,78.34
2022-12-15T11:02:37.344Z,78.37
2022-12-15T11:06:56.484Z,77.79
2022-12-15T11:11:45.236Z,77.57
2022-12-15T11:15:57.148Z,77.29
2022-12-15T11:20:18.383Z,77.67
2022-12-15T11:25:12.433Z,78.04
2022-12-15T11:29:23.975Z,78.12
2022-12-15T11:33:36.091Z,78.17
2022-12-15T11:38:03.568Z,77.88
2022-12-15T11:42:30.259Z,77.62
2022-12-15T11:46:51.796Z,77.75
2022-12-15T11:51:17.644Z,77.55
2022-12-15T11:55:47.436Z,77.61
2022-12-15T12:00:09.001Z,77.81
2022-12-15T12:04:43.482Z,77.67
2022-12-15T12:09:10.208Z,77.96
2022-12-15T12:13:38.168Z,77.96
2022-12-15T12:17:53.144Z,78.08
2022-12-15T12:22:14.942Z,77.88
2022-12-15T12:26:37.821Z,77.58
2022-12-15T12:30:50.504Z,77.21
2022-12-15T12:35:38.361Z,77.39
2022-12-15T12:39:54.052Z,77.91
2022-12-15T12:44:21.837Z,77.83
2022-12-15T12:48:58.733Z,78.01
2022-12-15T12:53:32.616Z,77.29
2022-12-15T12:57:45.808Z,77.37
2022-12-15T13:02:18.661Z,77.61
2022-12-15T13:06:36.531Z,77.73
2022-12-15T13:10:50.786Z,77.37
2022-12-15T13:15:18.554Z,77.38
2022-12-15T13:19:58.164Z,77.00
2022-12-15T13:24:35.727Z,76.45
2022-12-15T13:28:50.738Z,76.82
2022-12-15T13:33:18.350Z,76.58
2022-12-15T13:38:03.140Z,76.68
2022-12-15T13:42:33.040Z,76.95
2022-12-15T13:46:47.640Z,77.03
2022-12-15T13:51:18.263Z,76.88
2022-12-15T13:55:38.239Z,76.79
2022-12-15T14:00:18.771Z,76.84
2022-12-15T14:04:30.433Z,76.68
2022-12-15T14:08:42.994Z,76.85
2022-12-15T14:12:57.563Z,77.11
2022-12-15T14:17:14.057Z,77.13
2022-12-15T14:21:30.355Z,77.51
2022-12-15T14:25:52.872Z,77.56
2022-12-15T14:30:14.013Z,77.56
2022-12-15T14:34:29.163Z,77.58
2022-12-15T14:38:45.966Z,77.95
2022-12-15T14:42:57.821Z,77.86
2022-12-15T14:47:23.536Z,77.83
2022-12-15T14:51:42.972Z,78.20
2022-12-15T14:55:54.919Z,78.06
2022-12-15T15:00:29.919Z,78.48
2022-12-15T15:04:41.689Z,78.49
2022-12-15T15:08:53.801Z,78.23
2022-12-15T15:13:05.525Z,78.20
2022-12-15T15:17:42.665Z,78.16
2022-12-15T15:21:54.377Z,77.88
2022-12-15T15:26:05.925Z,78.12
2022-12-15T15:30:21.504Z,77.82
2022-12-15T15:34:33.447Z,77.98
2022-12-15T15:38:46.781Z,78.23
2022-12-15T15:42:58.440Z,78.58
2022-12-15T15:47:36.837Z,78.75
2022-12-15T15:51:48.882Z,78.77
2022-12-15T15:56:02.272Z,78.91
2022-12-15T16:00:21.647Z,79.05
2022-12-15T16:04:33.366Z,79.70
2022-12-15T16:08:47.392Z,79.64
2022-12-15T16:13:01.340Z,79.74
2022-12-15T16:17:14.817Z,79.96
2022-12-15T16:21:27.888Z,79.62
2022-12-15T16:25:50.638Z,80.00
2022-12-15T16:30:06.189Z,79.93
2022-12-15T16:34:19.184Z,79.84
2022-12-15T16:38:32.154Z,79.76
2022-12-15T16:42:48.567Z,80.03
2022-12-15T16:47:00.358Z,80.14
2022-12-15T16:51:29.473Z,80.40
2022-12-15T16:55:42.065Z,80.03
2022-12-15T16:59:53.700Z,80.42
2022-12-15T17:04:05.382Z,80.49
2022-12-15T17:08:29.764Z,80.28
2022-12-15T17:12:41.715Z,80.30
2022-12-15T17:16:55.549Z,80.76
2022-12-15T17:21:13.396Z,80.67
2022-12-15T17:26:00.877Z,80.64
2022-12-15T17:30:02.623Z,80.74
2022-12-15T17:34:30.331Z,80.41
2022-12-15T17:38:42.127Z,80.46
2022-12-15T17:42:53.704Z,81.14
2022-12-15T17:47:07.971Z,81.10
2022-12-15T17:51:20.323Z,81.21
2022-12-15T17:55:35.375Z,81.13
2022-12-15T17:59:47.348Z,81.16
2022-12-15T18:03:59.160Z,81.36
2022-12-15T18:08:27.856Z,81.14
2022-12-15T18:12:39.553Z,81.36
2022-12-15T18:16:51.204Z,81.47
2022-12-15T18:21:12.677Z,80.84
2022-12-15T18:25:30.157Z,81.57
2022-12-15T18:29:42.020Z,81.42
2022-12-15T18:34:00.885Z,81.37
2022-12-15T18:38:23.802Z,81.44
2022-12-15T18:42:35.561Z,81.85
2022-12-15T18:46:48.225Z,81.98
2022-12-15T18:51:02.741Z,81.81
2022-12-15T18:55:18.941Z,81.35
2022-12-15T18:59:35.929Z,81.86
2022-12-15T19:03:47.597Z,82.55
2022-12-15T19:08:03.050Z,81.91
2022-12-15T19:12:18.549Z,81.97
2022-12-15T19:16:53.084Z,82.25
2022-12-15T19:21:44.386Z,82.65
2022-12-15T19:25:55.971Z,82.47
2022-12-15T19:30:18.910Z,83.03
2022-12-15T19:34:30.968Z,83.13
2022-12-15T19:38:43.528Z,82.70
2022-12-15T19:42:55.412Z,82.87
2022-12-15T19:47:13.507Z,83.13
2022-12-15T19:51:25.560Z,83.23
2022-12-15T19:55:37.220Z,83.42
2022-12-15T19:59:49.050Z,82.91
2022-12-15T20:04:00.694Z,83.25
2022-12-15T20:08:22.132Z,82.77
2022-12-15T20:12:33.869Z,82.85
2022-12-15T20:16:45.686Z,82.93
2022-12-15T20:20:59.212Z,82.81
2022-12-15T20:25:16.968Z,82.26
2022-12-15T20:29:30.842Z,82.18
2022-12-15T20:33:47.361Z,82.38
2022-12-15T20:38:00.264Z,81.88
2022-12-15T20:42:15.238Z,82.31
2022-12-15T20:46:35.492Z,81.61
2022-12-15T20:50:49.196Z,81.97
2022-12-15T20:55:02.951Z,81.67
2022-12-15T20:59:36.525Z,81.46
2022-12-15T21:03:51.853Z,81.40
2022-12-15T21:08:14.337Z,81.53
2022-12-15T21:12:27.786Z,81.36
2022-12-15T21:16:39.562Z,81.88
2022-12-15T21:20:54.425Z,81.68
2022-12-15T21:25:22.369Z,81.14
2022-12-15T21:29:34.966Z,81.20
2022-12-15T21:33:47.085Z,81.22
2022-12-15T21:38:01.226Z,81.11
2022-12-15T21:42:16.019Z,80.98
2022-12-15T21:46:28.815Z,80.89
2022-12-15T21:50:43.259Z,81.15
2022-12-15T21:54:54.949Z,80.91
2022-12-15T21:59:12.813Z,80.31
2022-12-15T22:03:24.464Z,80.46
2022-12-15T22:07:36.108Z,80.06
2022-12-15T22:11:51.379Z,80.34
2022-12-15T22:16:03.096Z,79.72
2022-12-15T22:20:23.236Z,79.97
2022-12-15T22:24:34.923Z,79.88
2022-12-15T22:28:46.509Z,79.51
2022-12-15T22:32:58.151Z,79.85
2022-12-15T22:37:09.822Z,79.75
2022-12-15T22:41:22.905Z,80.22
2022-12-15T22:45:38.258Z,79.83
2022-12-15T22:49:52.753Z,79.39
2022-12-15T22:54:17.889Z,79.70
2022-12-15T22:58:41.650Z,79.88
2022-12-15T23:02:53.397Z,79.78
2022-12-15T23:07:10.103Z,79.92
2022-12-15T23:11:37.167Z,80.27
2022-12-15T23:16:08.384Z,80.29
2022-12-15T23:20:20.188Z,80.24
2022-12-15T23:24:31.839Z,79.94
2022-12-15T23:28:43.709Z,80.32
2022-12-15T23:32:55.621Z,80.16
2022-12-15T23:37:07.461Z,80.66
2022-12-15T23:41:20.030Z,80.71
2022-12-15T23:45:31.586Z,80.73
2022-12-15T23:49:43.178Z,81.62
2022-12-15T23:53:54.808Z,81.42
2022-12-15T23:58:06.457Z,81.46
